Time;durP1;ratioP1;P1;durP2;ratioP2;P2;SDS_P1;SDS_P2;PMS_P1;PMS_P2;Temp;Humidity;BMP_temperature;BMP_pressure;BME280_temperature;BME280_humidity;BME280_pressure;Samples;Min_cycle;Max_cycle;Signal;HPM_P1;HPM_P2
2023/05/02 00:01:53;;;;;;;9.57;5.57;;;11.30;99.90;;;;;;5079156;28;20306;-80
2023/05/02 00:04:20;;;;;;;10.23;5.63;;;11.20;99.90;;;;;;5089361;28;20212;-80
2023/05/02 00:06:47;;;;;;;8.00;5.10;;;11.10;99.90;;;;;;5086129;28;20261;-79
2023/05/02 00:09:15;;;;;;;9.10;5.10;;;11.10;99.90;;;;;;5105728;28;20193;-80
2023/05/02 00:11:42;;;;;;;8.87;4.93;;;11.10;99.90;;;;;;5112069;28;20225;-79
2023/05/02 00:14:09;;;;;;;9.43;5.37;;;11.20;99.90;;;;;;5082602;28;20894;-79
2023/05/02 00:16:36;;;;;;;10.17;5.30;;;11.30;99.90;;;;;;5078981;28;20198;-79
2023/05/02 00:19:03;;;;;;;9.03;5.20;;;11.20;99.90;;;;;;5078445;28;20197;-79
2023/05/02 00:21:30;;;;;;;8.83;5.33;;;11.10;99.90;;;;;;5077195;28;20241;-79
2023/05/02 00:23:57;;;;;;;9.13;5.40;;;11.20;99.90;;;;;;5075468;28;20277;-80
2023/05/02 00:26:25;;;;;;;9.73;5.50;;;11.30;99.90;;;;;;5107725;28;20209;-80
2023/05/02 00:28:52;;;;;;;10.03;5.00;;;11.20;99.90;;;;;;5103953;28;20198;-80
2023/05/02 00:31:19;;;;;;;8.10;4.97;;;11.30;99.90;;;;;;5094471;28;20228;-80
2023/05/02 00:33:46;;;;;;;9.03;5.40;;;11.30;99.90;;;;;;5076229;28;20226;-79
2023/05/02 00:36:16;;;;;;;8.77;5.43;;;11.20;99.90;;;;;;5075150;28;20209;-80
2023/05/02 00:38:43;;;;;;;10.20;5.77;;;11.10;99.90;;;;;;5089309;28;20204;-78
2023/05/02 00:41:10;;;;;;;8.20;5.30;;;11.20;99.90;;;;;;5094273;28;20222;-78
2023/05/02 00:43:39;;;;;;;10.20;5.40;;;11.20;99.90;;;;;;5093129;28;20281;-78
2023/05/02 00:46:07;;;;;;;10.23;5.50;;;11.20;99.90;;;;;;5090776;28;20198;-78
2023/05/02 00:48:35;;;;;;;8.63;5.03;;;11.20;99.90;;;;;;5086905;28;20194;-79
2023/05/02 00:51:04;;;;;;;7.80;4.90;;;11.20;99.90;;;;;;5079395;28;20727;-79
2023/05/02 00:53:31;;;;;;;10.40;5.80;;;11.10;99.90;;;;;;5089242;28;20222;-79
2023/05/02 00:55:58;;;;;;;7.67;5.13;;;11.00;99.90;;;;;;5075101;28;20561;-79
2023/05/02 00:58:26;;;;;;;11.03;5.77;;;11.00;99.90;;;;;;5090908;28;20208;-79
2023/05/02 01:01:04;;;;;;;10.40;5.63;;;11.10;99.90;;;;;;5079218;28;20790;-79
2023/05/02 01:03:39;;;;;;;8.97;5.27;;;11.10;99.90;;;;;;5075160;28;20186;-80
2023/05/02 01:06:20;;;;;;;8.43;4.90;;;10.90;99.90;;;;;;5093884;28;20207;-80
2023/05/02 01:08:55;;;;;;;7.90;5.40;;;10.90;99.90;;;;;;5115709;28;20197;-80
2023/05/02 01:11:35;;;;;;;10.37;5.63;;;10.90;99.90;;;;;;5103697;28;20236;-80
2023/05/02 01:14:05;;;;;;;9.53;5.57;;;10.80;99.90;;;;;;5096010;28;20312;-80
2023/05/02 01:16:39;;;;;;;8.60;5.60;;;10.90;99.90;;;;;;5095684;28;20201;-80
2023/05/02 01:19:09;;;;;;;11.83;6.37;;;11.00;99.90;;;;;;5095701;28;20205;-80
2023/05/02 01:21:38;;;;;;;10.27;5.93;;;11.00;99.90;;;;;;5095651;28;20221;-79
2023/05/02 01:24:11;;;;;;;8.70;5.60;;;11.00;99.90;;;;;;5095627;28;20212;-79
2023/05/02 01:26:48;;;;;;;9.77;5.30;;;11.00;99.90;;;;;;5092130;28;20342;-79
2023/05/02 01:29:18;;;;;;;11.50;5.77;;;11.20;99.90;;;;;;5074127;28;20201;-80
2023/05/02 01:31:49;;;;;;;8.10;5.00;;;11.10;99.90;;;;;;5074512;28;20225;-79
2023/05/02 01:34:19;;;;;;;10.87;5.70;;;11.10;99.90;;;;;;5084906;28;20219;-80
2023/05/02 01:36:48;;;;;;;11.10;6.03;;;11.00;99.90;;;;;;5087152;28;20205;-80
2023/05/02 01:39:20;;;;;;;11.37;6.23;;;11.00;99.90;;;;;;5093294;28;20194;-80
2023/05/02 01:41:49;;;;;;;11.17;5.90;;;11.00;99.90;;;;;;5078446;28;20818;-80
2023/05/02 01:44:19;;;;;;;7.90;5.23;;;11.10;99.90;;;;;;5092951;28;20204;-80
2023/05/02 01:46:47;;;;;;;8.47;5.53;;;11.10;99.90;;;;;;5081903;28;20232;-80
2023/05/02 01:49:14;;;;;;;8.53;5.20;;;11.20;99.90;;;;;;5074196;28;20578;-80
2023/05/02 01:51:45;;;;;;;9.57;5.20;;;11.10;99.90;;;;;;5073677;28;20252;-80
2023/05/02 01:54:14;;;;;;;10.90;6.30;;;11.10;99.90;;;;;;5090865;28;20223;-80
2023/05/02 01:56:43;;;;;;;13.10;5.90;;;11.20;99.90;;;;;;5087943;28;20282;-79
2023/05/02 01:59:12;;;;;;;14.30;6.50;;;11.30;99.90;;;;;;5084213;28;20213;-78
2023/05/02 02:01:42;;;;;;;12.70;7.27;;;11.20;99.90;;;;;;5076030;28;20222;-82
2023/05/02 02:04:11;;;;;;;16.13;9.07;;;11.30;99.90;;;;;;5087276;28;20202;-79
2023/05/02 02:06:37;;;;;;;15.33;8.90;;;11.40;99.90;;;;;;5076837;28;20583;-78
2023/05/02 02:09:04;;;;;;;15.97;8.43;;;11.40;99.90;;;;;;5094206;28;20207;-79
2023/05/02 02:11:36;;;;;;;13.87;8.37;;;11.40;99.90;;;;;;5091295;28;20260;-79
2023/05/02 02:14:07;;;;;;;16.27;8.73;;;11.60;99.90;;;;;;5083555;28;20221;-79
2023/05/02 02:16:38;;;;;;;17.57;9.80;;;11.50;99.90;;;;;;5081629;28;20289;-79
2023/05/02 02:19:10;;;;;;;16.87;9.17;;;11.50;99.90;;;;;;5091519;28;20671;-79
2023/05/02 02:21:37;;;;;;;14.87;8.73;;;11.50;99.90;;;;;;5093016;28;20230;-78
2023/05/02 02:24:06;;;;;;;15.37;9.47;;;11.60;99.90;;;;;;5091708;28;20198;-78
2023/05/02 02:26:34;;;;;;;17.03;9.73;;;11.40;99.90;;;;;;5074617;28;20206;-77
2023/05/02 02:29:01;;;;;;;16.80;10.27;;;11.50;99.90;;;;;;5085475;28;20289;-78
2023/05/02 02:31:31;;;;;;;20.03;10.17;;;11.50;99.90;;;;;;5076682;28;20690;-77
2023/05/02 02:33:59;;;;;;;17.47;9.63;;;11.50;99.90;;;;;;5086948;28;20218;-78
2023/05/02 02:36:34;;;;;;;18.60;9.87;;;11.50;99.90;;;;;;5074091;28;20202;-79
2023/05/02 02:39:12;;;;;;;15.70;9.17;;;11.50;99.90;;;;;;5082995;28;20576;-79
2023/05/02 02:41:43;;;;;;;19.70;9.77;;;11.50;99.90;;;;;;5085955;28;20321;-79
2023/05/02 02:44:24;;;;;;;17.27;9.73;;;11.40;99.90;;;;;;5078105;28;20207;-78
2023/05/02 02:47:01;;;;;;;17.17;10.73;;;11.30;99.90;;;;;;5074026;28;20595;-79
2023/05/02 02:49:35;;;;;;;19.63;11.30;;;11.30;99.90;;;;;;5090909;28;20198;-78
2023/05/02 02:52:10;;;;;;;20.57;11.73;;;11.20;99.90;;;;;;5078236;28;20214;-79
2023/05/02 02:54:43;;;;;;;21.13;12.03;;;11.20;99.90;;;;;;5077368;28;20714;-78
2023/05/02 02:57:17;;;;;;;21.07;11.60;;;11.20;99.90;;;;;;5081954;28;20209;-81
2023/05/02 02:59:56;;;;;;;19.50;11.83;;;11.10;99.90;;;;;;5089589;28;20259;-78
2023/05/02 03:02:27;;;;;;;22.37;13.27;;;11.10;99.90;;;;;;5086556;28;20715;-78
2023/05/02 03:04:56;;;;;;;25.27;12.73;;;11.10;99.90;;;;;;5087911;28;20230;-79
2023/05/02 03:07:27;;;;;;;19.40;11.70;;;11.10;99.90;;;;;;5094631;28;20199;-79
2023/05/02 03:09:54;;;;;;;20.70;11.63;;;11.10;99.90;;;;;;5077021;28;20305;-78
2023/05/02 03:12:21;;;;;;;19.13;11.50;;;11.10;99.90;;;;;;5081006;28;20710;-80
2023/05/02 03:14:48;;;;;;;24.33;12.77;;;11.10;99.90;;;;;;5085240;28;20222;-80
2023/05/02 03:17:14;;;;;;;21.37;12.07;;;11.10;99.90;;;;;;5077633;28;20206;-79
2023/05/02 03:19:41;;;;;;;22.43;12.83;;;11.10;99.90;;;;;;5078524;28;20198;-78
2023/05/02 03:22:08;;;;;;;21.63;13.27;;;11.00;99.90;;;;;;5077364;28;20666;-78
2023/05/02 03:24:36;;;;;;;22.03;12.80;;;10.90;99.90;;;;;;5076548;28;20202;-79
2023/05/02 03:27:03;;;;;;;24.57;14.10;;;11.00;99.90;;;;;;5077855;28;20668;-79
2023/05/02 03:29:30;;;;;;;23.80;14.00;;;11.00;99.90;;;;;;5085022;28;20212;-79
2023/05/02 03:31:57;;;;;;;24.50;13.83;;;11.10;99.90;;;;;;5080202;28;20218;-80
2023/05/02 03:34:24;;;;;;;22.73;13.47;;;11.10;99.90;;;;;;5086348;28;20227;-79
2023/05/02 03:36:51;;;;;;;23.13;13.07;;;11.00;99.90;;;;;;5099090;28;20250;-80
2023/05/02 03:39:17;;;;;;;24.23;13.67;;;11.10;99.90;;;;;;5091112;28;20210;-78
2023/05/02 03:42:02;;;;;;;22.03;13.37;;;11.10;99.90;;;;;;5095813;28;20230;-78
2023/05/02 03:44:28;;;;;;;25.00;13.10;;;11.10;99.90;;;;;;5116981;27;20193;-78
2023/05/02 03:46:55;;;;;;;22.57;12.70;;;11.10;99.90;;;;;;5118169;28;20211;-78
2023/05/02 03:49:22;;;;;;;20.87;12.00;;;11.10;99.90;;;;;;5117079;28;20685;-78
2023/05/02 03:51:49;;;;;;;24.17;12.50;;;11.10;99.90;;;;;;5117990;28;20609;-79
2023/05/02 03:54:16;;;;;;;23.57;12.80;;;11.00;99.90;;;;;;5117929;28;20307;-79
2023/05/02 03:56:43;;;;;;;22.93;12.97;;;11.10;99.90;;;;;;5118059;28;20291;-79
2023/05/02 03:59:11;;;;;;;24.13;13.30;;;11.10;99.90;;;;;;5117446;28;20208;-80
2023/05/02 04:01:38;;;;;;;23.60;12.97;;;11.10;99.90;;;;;;5118424;28;20262;-80
2023/05/02 04:04:05;;;;;;;21.63;11.93;;;11.10;99.90;;;;;;5117655;28;20197;-80
2023/05/02 04:06:32;;;;;;;22.43;12.07;;;11.10;99.90;;;;;;5118129;28;20731;-79
2023/05/02 04:08:59;;;;;;;22.17;12.03;;;11.10;99.90;;;;;;5116996;28;20208;-79
2023/05/02 04:11:27;;;;;;;22.80;12.13;;;11.00;99.90;;;;;;5115551;28;20632;-78
2023/05/02 04:13:53;;;;;;;22.60;11.97;;;11.10;99.90;;;;;;5116166;28;20217;-78
2023/05/02 04:16:22;;;;;;;20.17;11.33;;;11.20;99.90;;;;;;5115839;28;20692;-78
2023/05/02 04:18:48;;;;;;;21.17;12.27;;;11.20;99.90;;;;;;5117114;28;20204;-78
2023/05/02 04:21:15;;;;;;;23.10;12.93;;;11.10;99.90;;;;;;5116606;28;20220;-79
2023/05/02 04:23:42;;;;;;;23.37;12.37;;;11.10;99.90;;;;;;5117378;28;20680;-79
2023/05/02 04:26:09;;;;;;;23.30;11.73;;;11.10;99.90;;;;;;5116184;28;20268;-79
2023/05/02 04:28:36;;;;;;;21.73;12.07;;;11.20;99.90;;;;;;5115937;28;20205;-79
2023/05/02 04:31:03;;;;;;;22.77;12.20;;;11.10;99.90;;;;;;5115006;28;20221;-78
2023/05/02 04:33:31;;;;;;;20.50;10.90;;;11.10;99.90;;;;;;5115955;28;20204;-78
2023/05/02 04:35:58;;;;;;;22.27;12.23;;;11.10;99.90;;;;;;5115039;28;20231;-79
2023/05/02 04:38:26;;;;;;;24.13;12.47;;;11.10;99.90;;;;;;5114785;28;20201;-78
2023/05/02 04:40:53;;;;;;;22.40;11.47;;;11.10;99.90;;;;;;5114655;28;20260;-81
2023/05/02 04:43:20;;;;;;;22.83;11.63;;;11.10;99.90;;;;;;5117237;28;20201;-81
2023/05/02 04:45:47;;;;;;;25.40;13.60;;;11.00;99.90;;;;;;5116846;28;20208;-78
2023/05/02 04:48:13;;;;;;;25.83;12.57;;;11.10;99.90;;;;;;5116160;28;20204;-78
2023/05/02 04:50:42;;;;;;;22.67;12.07;;;11.10;99.90;;;;;;5115463;28;20394;-79
2023/05/02 04:53:08;;;;;;;23.67;12.60;;;11.10;99.90;;;;;;5115715;28;20205;-79
2023/05/02 04:55:35;;;;;;;23.20;12.70;;;11.00;99.90;;;;;;5115869;28;20239;-79
2023/05/02 04:58:03;;;;;;;26.43;13.47;;;10.90;99.90;;;;;;5116161;28;20544;-79
2023/05/02 05:00:30;;;;;;;26.13;13.33;;;10.90;99.90;;;;;;5115071;27;20212;-79
2023/05/02 05:02:57;;;;;;;26.00;13.03;;;10.90;99.90;;;;;;5115327;28;20224;-79
2023/05/02 05:05:23;;;;;;;26.17;13.33;;;10.90;99.90;;;;;;5114801;28;20571;-80
2023/05/02 05:07:52;;;;;;;25.40;13.43;;;10.90;99.90;;;;;;5115215;28;20566;-79
2023/05/02 05:10:19;;;;;;;24.10;13.30;;;11.00;99.90;;;;;;5115208;28;20205;-78
2023/05/02 05:12:46;;;;;;;28.40;13.90;;;10.90;99.90;;;;;;5116077;28;20702;-78
2023/05/02 05:15:12;;;;;;;25.27;13.07;;;11.00;99.90;;;;;;5116024;28;20229;-79
2023/05/02 05:17:39;;;;;;;25.27;12.93;;;11.00;99.90;;;;;;5100979;28;20206;-79
2023/05/02 05:20:10;;;;;;;27.03;13.40;;;11.00;99.90;;;;;;5091499;28;20202;-79
2023/05/02 05:22:41;;;;;;;24.23;12.70;;;11.00;99.90;;;;;;5089694;28;20233;-78
2023/05/02 05:25:10;;;;;;;23.97;12.40;;;10.90;99.90;;;;;;5075537;28;20210;-78
2023/05/02 05:27:37;;;;;;;24.50;13.10;;;11.00;99.90;;;;;;5099863;28;20201;-79
2023/05/02 05:30:05;;;;;;;23.80;12.80;;;11.00;99.90;;;;;;5093954;28;20289;-79
2023/05/02 05:32:33;;;;;;;23.43;11.53;;;11.00;99.90;;;;;;5079841;28;20218;-79
2023/05/02 05:34:59;;;;;;;20.00;9.90;;;11.00;99.90;;;;;;5084607;28;20222;-79
2023/05/02 05:37:26;;;;;;;19.83;10.67;;;10.90;99.90;;;;;;5081176;28;20840;-79
2023/05/02 05:39:53;;;;;;;20.10;9.67;;;11.00;99.90;;;;;;5091443;28;20244;-79
2023/05/02 05:42:21;;;;;;;22.23;10.43;;;10.90;99.90;;;;;;5094390;28;20222;-80
2023/05/02 05:44:48;;;;;;;19.87;10.10;;;10.70;99.90;;;;;;5095661;28;20233;-79
2023/05/02 05:47:20;;;;;;;18.67;9.60;;;10.70;99.90;;;;;;5087643;28;20206;-78
2023/05/02 05:49:47;;;;;;;18.07;9.33;;;10.80;99.90;;;;;;5079408;28;20206;-79
2023/05/02 05:52:14;;;;;;;19.23;9.33;;;10.70;99.90;;;;;;5095003;28;20218;-78
2023/05/02 05:54:41;;;;;;;15.37;8.83;;;10.60;99.90;;;;;;5090792;28;20226;-78
2023/05/02 05:57:07;;;;;;;11.80;6.23;;;10.50;99.90;;;;;;5074643;28;20205;-79
2023/05/02 05:59:36;;;;;;;10.30;5.63;;;10.30;99.90;;;;;;5084602;28;20209;-79
2023/05/02 06:02:04;;;;;;;6.87;4.30;;;10.00;99.90;;;;;;5090725;28;20234;-77
2023/05/02 06:04:31;;;;;;;7.17;4.13;;;9.90;99.90;;;;;;5079696;28;20204;-77
2023/05/02 06:06:57;;;;;;;6.03;3.60;;;9.80;99.90;;;;;;5077663;28;20194;-79
2023/05/02 06:09:24;;;;;;;5.43;3.33;;;9.90;99.90;;;;;;5075767;28;20198;-78
2023/05/02 06:11:51;;;;;;;5.50;3.67;;;9.80;99.90;;;;;;5099447;28;20221;-78
2023/05/02 06:14:21;;;;;;;5.53;3.60;;;9.60;99.90;;;;;;5101167;28;20292;-78
2023/05/02 06:16:49;;;;;;;4.80;2.97;;;9.60;99.90;;;;;;5083281;28;20486;-79
2023/05/02 06:19:16;;;;;;;5.00;3.40;;;9.40;99.90;;;;;;5082037;28;20206;-78
2023/05/02 06:21:43;;;;;;;5.00;3.30;;;9.40;99.90;;;;;;5081949;28;20253;-78
2023/05/02 06:24:09;;;;;;;6.70;2.80;;;9.30;99.90;;;;;;5082756;28;20221;-78
2023/05/02 06:26:36;;;;;;;7.37;2.90;;;9.30;99.90;;;;;;5085448;28;20202;-78
2023/05/02 06:29:03;;;;;;;6.50;3.17;;;9.20;99.90;;;;;;5085661;28;20740;-78
2023/05/02 06:31:30;;;;;;;5.57;3.40;;;9.20;99.90;;;;;;5085069;28;20217;-78
2023/05/02 06:33:58;;;;;;;6.47;3.10;;;9.20;99.90;;;;;;5090688;28;20206;-78
2023/05/02 06:36:25;;;;;;;5.83;2.80;;;9.10;99.90;;;;;;5104959;28;20229;-78
2023/05/02 06:38:51;;;;;;;6.27;3.33;;;9.10;99.90;;;;;;5104474;28;20197;-78
2023/05/02 06:41:19;;;;;;;10.97;4.63;;;9.20;99.90;;;;;;5103886;28;20716;-78
2023/05/02 06:43:46;;;;;;;8.27;3.30;;;9.30;99.90;;;;;;5104950;28;20229;-78
2023/05/02 06:46:13;;;;;;;5.33;3.27;;;9.30;99.90;;;;;;5105399;28;20265;-77
2023/05/02 06:48:39;;;;;;;9.13;3.37;;;9.40;99.90;;;;;;5105160;28;20300;-77
2023/05/02 06:51:10;;;;;;;8.33;3.03;;;9.40;99.90;;;;;;5105080;28;20232;-79
2023/05/02 06:53:36;;;;;;;8.37;3.07;;;9.20;99.90;;;;;;5106480;28;20633;-78
2023/05/02 06:56:05;;;;;;;8.03;3.23;;;9.10;99.90;;;;;;5104097;28;20312;-78
2023/05/02 06:58:32;;;;;;;7.33;3.23;;;9.20;99.90;;;;;;5105424;28;20248;-78
2023/05/02 07:00:58;;;;;;;6.53;3.70;;;9.30;99.90;;;;;;5104849;28;20268;-79
2023/05/02 07:03:25;;;;;;;6.73;3.50;;;9.20;99.90;;;;;;5103349;28;20633;-78
2023/05/02 07:05:52;;;;;;;7.20;3.53;;;9.30;99.90;;;;;;5100618;28;20194;-77
2023/05/02 07:08:21;;;;;;;14.53;4.27;;;9.20;99.90;;;;;;5088164;28;20289;-78
2023/05/02 07:10:48;;;;;;;8.03;3.60;;;9.30;99.90;;;;;;5083102;28;20788;-78
2023/05/02 07:13:15;;;;;;;11.33;4.30;;;9.40;99.90;;;;;;5083008;28;20202;-78
2023/05/02 07:15:42;;;;;;;11.50;4.10;;;9.60;99.90;;;;;;5082610;28;20275;-78
2023/05/02 07:18:09;;;;;;;14.63;4.50;;;10.00;99.90;;;;;;5082249;28;20554;-77
2023/05/02 07:20:37;;;;;;;13.33;4.70;;;10.00;99.90;;;;;;5082321;28;20206;-78
2023/05/02 07:23:04;;;;;;;13.43;5.60;;;10.20;99.90;;;;;;5089651;28;20206;-77
2023/05/02 07:25:32;;;;;;;14.77;4.50;;;10.00;99.90;;;;;;5102689;28;20204;-77
2023/05/02 07:27:59;;;;;;;12.70;5.00;;;10.20;99.90;;;;;;5103947;28;20269;-79
2023/05/02 07:30:26;;;;;;;15.80;5.00;;;10.30;99.90;;;;;;5104787;28;20205;-78
2023/05/02 07:32:53;;;;;;;13.30;4.73;;;10.40;99.90;;;;;;5107306;28;20216;-78
2023/05/02 07:35:20;;;;;;;11.93;4.33;;;10.40;99.90;;;;;;5102641;28;20228;-79
2023/05/02 07:37:46;;;;;;;14.47;4.63;;;10.60;99.90;;;;;;5081844;28;20213;-78
2023/05/02 07:40:13;;;;;;;13.93;5.10;;;10.60;99.90;;;;;;5076874;28;20206;-78
2023/05/02 07:42:43;;;;;;;9.87;3.93;;;10.40;99.90;;;;;;5079553;28;20700;-77
2023/05/02 07:45:10;;;;;;;9.53;3.70;;;10.30;99.90;;;;;;5083394;28;20198;-77
2023/05/02 07:47:37;;;;;;;14.57;4.50;;;10.20;99.90;;;;;;5082909;28;20198;-77
2023/05/02 07:50:04;;;;;;;11.73;4.43;;;10.20;99.90;;;;;;5079429;28;20874;-78
2023/05/02 07:52:31;;;;;;;12.47;5.60;;;10.10;99.90;;;;;;5083243;28;20246;-79
2023/05/02 07:54:58;;;;;;;11.50;3.87;;;10.30;99.90;;;;;;5083289;28;20222;-77
2023/05/02 07:57:26;;;;;;;11.13;4.07;;;10.40;99.90;;;;;;5084189;28;20686;-78
2023/05/02 07:59:56;;;;;;;16.30;4.63;;;10.10;99.90;;;;;;5083770;28;20301;-79
2023/05/02 08:02:22;;;;;;;10.07;3.87;;;10.00;99.90;;;;;;5084172;28;20222;-78
2023/05/02 08:04:49;;;;;;;8.63;3.97;;;10.40;99.90;;;;;;5085844;28;20279;-80
2023/05/02 08:07:18;;;;;;;14.43;3.93;;;10.30;99.90;;;;;;5086637;28;20204;-79
2023/05/02 08:09:45;;;;;;;9.30;4.13;;;10.50;99.90;;;;;;5084161;28;20293;-79
2023/05/02 08:12:12;;;;;;;12.03;4.23;;;10.70;99.90;;;;;;5085208;28;20317;-79
2023/05/02 08:14:38;;;;;;;14.93;5.17;;;10.80;99.90;;;;;;5098672;28;20211;-79
2023/05/02 08:17:07;;;;;;;9.87;4.33;;;11.00;99.90;;;;;;5102341;28;20221;-79
2023/05/02 08:19:33;;;;;;;12.97;4.10;;;11.00;99.90;;;;;;5092068;28;20212;-78
2023/05/02 08:22:00;;;;;;;10.53;4.20;;;10.90;99.90;;;;;;5093597;28;20683;-79
2023/05/02 08:24:27;;;;;;;15.20;4.20;;;10.90;99.90;;;;;;5092169;28;20212;-79
2023/05/02 08:26:54;;;;;;;11.87;4.17;;;10.80;99.90;;;;;;5092774;28;20285;-78
2023/05/02 08:29:20;;;;;;;12.67;4.60;;;10.90;99.90;;;;;;5084313;28;20289;-78
2023/05/02 08:31:47;;;;;;;11.77;5.17;;;11.10;99.90;;;;;;5091648;28;20218;-78
2023/05/02 08:34:15;;;;;;;12.00;4.80;;;11.10;99.90;;;;;;5101240;28;20260;-78
2023/05/02 08:36:42;;;;;;;10.73;4.67;;;11.00;99.90;;;;;;5082684;28;20221;-78
2023/05/02 08:39:10;;;;;;;8.80;3.90;;;10.80;99.90;;;;;;5083918;28;20655;-77
2023/05/02 08:41:38;;;;;;;12.73;4.57;;;10.80;99.90;;;;;;5083801;28;20222;-78
2023/05/02 08:44:06;;;;;;;11.40;4.23;;;10.70;99.90;;;;;;5084147;28;20367;-79
2023/05/02 08:46:36;;;;;;;10.57;3.80;;;11.00;99.90;;;;;;5083469;28;20226;-79
2023/05/02 08:49:04;;;;;;;11.93;4.20;;;11.00;99.90;;;;;;5084689;28;20220;-79
2023/05/02 08:51:33;;;;;;;13.93;4.83;;;10.80;99.90;;;;;;5084530;28;20309;-79
2023/05/02 08:54:02;;;;;;;9.70;4.17;;;10.50;99.90;;;;;;5085294;28;20575;-79
2023/05/02 08:56:29;;;;;;;10.10;3.63;;;10.60;99.90;;;;;;5084435;28;20508;-79
2023/05/02 08:58:56;;;;;;;10.83;3.67;;;10.50;99.90;;;;;;5087956;28;20206;-79
2023/05/02 09:01:25;;;;;;;9.63;3.27;;;10.40;99.90;;;;;;5104526;28;20226;-78
2023/05/02 09:03:53;;;;;;;7.17;3.20;;;10.30;99.90;;;;;;5103260;28;20197;-78
2023/05/02 09:06:21;;;;;;;9.63;3.23;;;10.40;99.90;;;;;;5085960;28;20206;-77
2023/05/02 09:08:52;;;;;;;13.27;3.43;;;10.70;99.90;;;;;;5082615;28;20202;-79
2023/05/02 09:11:20;;;;;;;8.50;2.97;;;10.60;99.90;;;;;;5082414;28;20222;-80
2023/05/02 09:13:48;;;;;;;10.87;3.97;;;10.70;99.90;;;;;;5082135;28;20625;-80
2023/05/02 09:16:17;;;;;;;9.03;2.93;;;10.50;99.90;;;;;;5082417;28;20228;-79
2023/05/02 09:18:45;;;;;;;10.17;3.03;;;10.60;99.90;;;;;;5097764;28;20292;-78
2023/05/02 09:21:14;;;;;;;9.63;3.43;;;10.50;99.90;;;;;;5085339;28;20230;-77
2023/05/02 09:23:42;;;;;;;5.60;3.30;;;10.40;99.90;;;;;;5081704;28;20216;-79
2023/05/02 09:26:21;;;;;;;9.23;3.80;;;10.20;99.90;;;;;;5080828;28;20648;-79
2023/05/02 09:28:49;;;;;;;10.10;3.37;;;10.20;99.90;;;;;;5089696;28;20296;-79
2023/05/02 09:31:17;;;;;;;5.33;2.90;;;10.50;99.90;;;;;;5095904;28;20225;-80
2023/05/02 09:33:45;;;;;;;7.17;2.97;;;10.40;99.90;;;;;;5096422;28;20198;-79
2023/05/02 09:36:14;;;;;;;7.70;3.37;;;10.30;99.90;;;;;;5095377;28;20345;-79
2023/05/02 09:38:41;;;;;;;12.07;3.63;;;10.40;99.90;;;;;;5110936;28;20937;-79
2023/05/02 09:41:08;;;;;;;10.60;4.20;;;10.40;99.90;;;;;;5116272;28;20698;-79
2023/05/02 09:43:37;;;;;;;10.43;4.00;;;10.30;99.90;;;;;;5081776;28;20297;-79
2023/05/02 09:46:05;;;;;;;8.53;3.83;;;10.00;99.90;;;;;;5074725;28;20221;-80
2023/05/02 09:48:51;;;;;;;6.50;3.67;;;10.20;99.90;;;;;;5074766;28;20213;-80
2023/05/02 09:51:18;;;;;;;8.10;4.10;;;10.00;99.90;;;;;;5074853;28;20222;-80
2023/05/02 09:53:45;;;;;;;12.20;4.53;;;10.10;99.90;;;;;;5074592;28;20293;-80
2023/05/02 09:56:12;;;;;;;10.53;4.07;;;10.10;99.90;;;;;;5090688;28;20312;-79
2023/05/02 09:58:40;;;;;;;11.10;3.70;;;10.00;99.90;;;;;;5094420;28;20201;-79
2023/05/02 10:01:07;;;;;;;9.80;4.17;;;9.90;99.90;;;;;;5093295;28;20230;-80
2023/05/02 10:03:37;;;;;;;7.73;3.33;;;10.00;99.90;;;;;;5094028;28;20685;-79
2023/05/02 10:06:08;;;;;;;8.20;2.90;;;10.00;99.90;;;;;;5094723;28;20250;-78
2023/05/02 10:08:35;;;;;;;8.90;3.50;;;9.90;99.90;;;;;;5094421;28;20186;-79
2023/05/02 10:11:07;;;;;;;6.73;4.10;;;10.20;99.90;;;;;;5094649;28;20618;-79
2023/05/02 10:13:36;;;;;;;7.07;3.83;;;10.40;99.90;;;;;;5094367;28;20197;-80
2023/05/02 10:16:05;;;;;;;9.63;4.43;;;10.50;99.90;;;;;;5095211;28;20270;-80
2023/05/02 10:18:38;;;;;;;7.63;3.70;;;10.70;99.90;;;;;;5094996;28;20198;-78
2023/05/02 10:21:08;;;;;;;9.13;4.13;;;10.40;99.90;;;;;;5094183;28;20217;-80
2023/05/02 10:23:36;;;;;;;9.20;3.67;;;10.40;99.90;;;;;;5096528;28;20221;-81
2023/05/02 10:26:03;;;;;;;6.53;3.37;;;10.40;99.90;;;;;;5096515;28;20208;-79
2023/05/02 10:28:30;;;;;;;6.93;3.40;;;10.40;99.90;;;;;;5096770;28;20201;-79
2023/05/02 10:31:00;;;;;;;7.37;3.57;;;10.70;99.90;;;;;;5096166;28;20249;-80
2023/05/02 10:33:30;;;;;;;7.70;3.57;;;10.90;99.90;;;;;;5096427;28;20206;-81
2023/05/02 10:35:57;;;;;;;7.17;3.40;;;10.90;99.90;;;;;;5095788;28;20221;-80
2023/05/02 10:38:24;;;;;;;9.37;3.53;;;10.70;99.90;;;;;;5094995;28;20201;-80
2023/05/02 10:40:56;;;;;;;5.10;3.60;;;10.70;99.90;;;;;;5095623;28;20206;-80
2023/05/02 10:43:28;;;;;;;6.23;3.10;;;10.60;99.90;;;;;;5095847;28;20534;-78
2023/05/02 10:45:55;;;;;;;6.80;3.00;;;10.50;99.90;;;;;;5095793;28;20201;-81
2023/05/02 10:48:25;;;;;;;8.00;3.20;;;10.50;99.90;;;;;;5095716;28;20663;-80
2023/05/02 10:50:54;;;;;;;8.13;3.53;;;10.80;99.90;;;;;;5095808;28;20228;-80
2023/05/02 10:53:32;;;;;;;7.93;3.43;;;11.00;99.90;;;;;;5096618;28;20219;-80
2023/05/02 10:56:20;;;;;;;9.03;3.13;;;11.10;99.90;;;;;;5095693;28;20217;-80
2023/05/02 10:58:48;;;;;;;8.27;3.70;;;11.00;99.90;;;;;;5095933;28;20288;-80
2023/05/02 11:01:38;;;;;;;10.00;3.80;;;10.90;99.90;;;;;;5094788;28;20279;-80
2023/05/02 11:04:07;;;;;;;3.90;3.07;;;11.10;99.90;;;;;;5095021;28;20296;-80
2023/05/02 11:06:36;;;;;;;8.50;3.40;;;10.90;99.90;;;;;;5095116;28;20250;-80
2023/05/02 11:09:32;;;;;;;6.97;4.07;;;11.40;99.90;;;;;;5095794;28;20201;-80
2023/05/02 11:12:00;;;;;;;7.67;3.23;;;11.90;99.90;;;;;;5097453;28;20245;-80
2023/05/02 11:14:46;;;;;;;5.27;2.67;;;11.80;99.90;;;;;;5098747;28;20206;-79
2023/05/02 11:17:13;;;;;;;6.17;3.27;;;11.90;99.90;;;;;;5099106;28;20290;-84
2023/05/02 11:20:28;;;;;;;11.20;3.10;;;11.60;99.90;;;;;;5100491;28;20197;-82
2023/05/02 11:23:13;;;;;;;6.17;2.93;;;12.00;99.90;;;;;;5098845;28;20226;-81
2023/05/02 11:25:42;;;;;;;4.63;2.87;;;11.90;99.90;;;;;;5099265;28;20285;-80
2023/05/02 11:28:46;;;;;;;5.73;2.90;;;11.80;99.90;;;;;;5099169;28;20230;-80
2023/05/02 11:31:55;;;;;;;5.00;3.10;;;12.10;99.90;;;;;;5096961;28;20882;-80
2023/05/02 11:34:22;;;;;;;8.20;3.40;;;12.20;99.90;;;;;;5035369;28;20663;-79
2023/05/02 11:36:49;;;;;;;4.50;2.90;;;12.00;99.90;;;;;;5035027;28;20259;-80
2023/05/02 11:39:21;;;;;;;9.03;3.73;;;12.20;99.90;;;;;;5066880;28;20202;-79
2023/05/02 11:41:49;;;;;;;5.10;2.87;;;12.30;99.90;;;;;;5098369;28;20263;-80
2023/05/02 11:44:16;;;;;;;7.80;3.40;;;11.80;99.90;;;;;;5098370;28;20212;-80
2023/05/02 11:46:44;;;;;;;12.00;3.40;;;12.10;99.90;;;;;;5098946;28;20205;-80
2023/05/02 11:49:12;;;;;;;7.93;3.80;;;11.80;1.00;;;;;;5099431;28;20258;-79
2023/05/02 11:51:39;;;;;;;7.27;3.57;;;12.00;1.00;;;;;;5097371;28;20233;-80
2023/05/02 11:54:09;;;;;;;8.07;3.50;;;12.30;1.00;;;;;;5093622;28;20206;-80
2023/05/02 11:56:37;;;;;;;9.40;4.20;;;12.60;1.00;;;;;;5105956;28;20692;-80
2023/05/02 11:59:05;;;;;;;8.80;4.43;;;12.40;1.00;;;;;;5090783;28;20234;-80
2023/05/02 12:01:32;;;;;;;5.80;3.83;;;12.50;1.00;;;;;;5076880;28;20230;-80
2023/05/02 12:04:03;;;;;;;7.53;3.87;;;12.40;99.90;;;;;;5075258;28;20206;-80
2023/05/02 12:06:30;;;;;;;6.80;4.00;;;12.60;99.90;;;;;;5077217;28;20870;-81
2023/05/02 12:09:07;;;;;;;9.07;4.30;;;12.60;60.10;;;;;;5097613;28;20229;-80
2023/05/02 12:11:37;;;;;;;8.20;4.33;;;12.60;99.90;;;;;;5096352;28;20217;-80
2023/05/02 12:14:04;;;;;;;9.33;3.87;;;12.70;1.00;;;;;;5083754;28;20281;-80
2023/05/02 12:16:31;;;;;;;12.53;4.37;;;12.80;1.00;;;;;;5077526;28;20241;-78
2023/05/02 12:18:59;;;;;;;8.00;3.87;;;12.60;1.00;;;;;;5080322;28;20241;-81
2023/05/02 12:21:28;;;;;;;5.67;3.60;;;12.70;1.00;;;;;;5082510;28;20226;-79
2023/05/02 12:23:56;;;;;;;9.43;3.93;;;12.90;99.90;;;;;;5077567;28;20230;-80
2023/05/02 12:26:28;;;;;;;5.73;3.53;;;12.40;99.90;;;;;;5081487;28;20222;-79
2023/05/02 12:28:57;;;;;;;12.97;4.70;;;12.50;28.90;;;;;;5089485;28;20656;-78
2023/05/02 12:31:24;;;;;;;7.33;4.43;;;12.50;1.00;;;;;;5083657;28;20218;-80
2023/05/02 12:33:56;;;;;;;9.77;4.57;;;12.70;1.00;;;;;;5098726;28;20203;-80
2023/05/02 12:36:23;;;;;;;10.80;4.10;;;12.60;1.00;;;;;;5099297;28;20256;-79
2023/05/02 12:38:51;;;;;;;8.83;3.70;;;12.90;1.00;;;;;;5099211;28;20566;-79
2023/05/02 12:41:19;;;;;;;10.57;3.90;;;13.00;1.00;;;;;;5098970;28;20244;-79
2023/05/02 12:43:48;;;;;;;6.20;4.03;;;13.10;1.00;;;;;;5082278;28;20198;-78
2023/05/02 12:46:19;;;;;;;7.93;3.50;;;13.00;99.90;;;;;;5079609;28;20289;-80
2023/05/02 12:48:46;;;;;;;8.87;4.17;;;13.00;99.90;;;;;;5078504;28;20753;-79
2023/05/02 12:51:23;;;;;;;6.03;3.03;;;13.10;99.90;;;;;;5079399;28;20253;-79